Time;durP1;ratioP1;P1;durP2;ratioP2;P2;SDS_P1;SDS_P2;PMS_P1;PMS_P2;Temp;Humidity;BMP_temperature;BMP_pressure;BME280_temperature;BME280_humidity;BME280_pressure;Samples;Min_cycle;Max_cycle;Signal;HPM_P1;HPM_P2
2023/12/20 00:00:38;;;;;;;0.73;0.50;;;;;;;3.34;100.00;98127.72;6101119;19;20327;-71
2023/12/20 00:02:38;;;;;;;0.50;0.50;;;;;;;3.35;100.00;98121.09;6100678;19;20423;-71
2023/12/20 00:04:38;;;;;;;0.50;0.50;;;;;;;3.34;100.00;98130.44;6101898;19;20010;-71
2023/12/20 00:06:39;;;;;;;0.73;0.70;;;;;;;3.34;100.00;98117.56;6101206;19;20003;-71
2023/12/20 00:08:39;;;;;;;0.60;0.50;;;;;;;3.32;100.00;98117.13;6102858;19;20544;-71
2023/12/20 00:10:39;;;;;;;0.60;0.50;;;;;;;3.30;100.00;98121.31;6102484;19;20010;-71
2023/12/20 00:12:40;;;;;;;0.93;0.70;;;;;;;3.31;100.00;98107.31;6101865;19;20352;-71
2023/12/20 00:14:41;;;;;;;0.73;0.70;;;;;;;3.28;100.00;98110.72;6101653;19;20003;-71
2023/12/20 00:16:41;;;;;;;0.60;0.60;;;;;;;3.32;100.00;98099.91;6102998;19;20359;-71
2023/12/20 00:18:41;;;;;;;0.70;0.60;;;;;;;3.34;100.00;98106.63;6102705;19;20011;-71
2023/12/20 00:20:42;;;;;;;0.52;0.52;;;;;;;3.40;100.00;98104.47;6100992;19;20056;-71
2023/12/20 00:22:42;;;;;;;0.50;0.50;;;;;;;3.35;100.00;98104.69;6102928;19;20272;-71
2023/12/20 00:24:42;;;;;;;0.60;0.60;;;;;;;3.36;100.00;98101.63;6101202;19;20007;-71
2023/12/20 00:26:42;;;;;;;0.50;0.50;;;;;;;3.34;100.00;98103.91;6101073;19;20425;-71
2023/12/20 00:28:43;;;;;;;0.40;0.40;;;;;;;3.33;100.00;98107.78;6102569;19;20105;-71
2023/12/20 00:30:43;;;;;;;0.50;0.50;;;;;;;3.32;100.00;98106.19;6100394;19;20019;-71
2023/12/20 00:32:46;;;;;;;0.40;0.40;;;;;;;3.31;100.00;98104.59;6102793;19;20012;-71
2023/12/20 00:34:46;;;;;;;0.98;0.57;;;;;;;3.33;100.00;98109.72;6101419;19;20542;-71
2023/12/20 00:36:47;;;;;;;0.50;0.50;;;;;;;3.30;100.00;98113.09;6101959;19;20010;-71
2023/12/20 00:38:48;;;;;;;0.50;0.50;;;;;;;3.32;100.00;98114.38;6102377;19;20021;-71
2023/12/20 00:40:49;;;;;;;0.70;0.55;;;;;;;3.37;100.00;98118.81;6100098;19;20021;-71
2023/12/20 00:42:49;;;;;;;0.50;0.50;;;;;;;3.42;100.00;98124.06;6100392;19;20422;-71
2023/12/20 00:44:50;;;;;;;0.50;0.50;;;;;;;3.41;100.00;98117.00;6101815;19;20010;-71
2023/12/20 00:46:51;;;;;;;0.52;0.52;;;;;;;3.40;100.00;98120.09;6101042;19;20009;-71
2023/12/20 00:48:51;;;;;;;0.50;0.50;;;;;;;3.37;100.00;98114.13;6099957;19;20002;-71
2023/12/20 00:50:51;;;;;;;0.77;0.50;;;;;;;3.40;100.00;98107.22;6100168;19;20384;-71
2023/12/20 00:52:52;;;;;;;0.40;0.40;;;;;;;3.32;100.00;98100.72;6101465;19;20003;-71
2023/12/20 00:54:52;;;;;;;0.40;0.40;;;;;;;3.28;100.00;98097.03;6101152;19;20022;-71
2023/12/20 00:56:52;;;;;;;0.50;0.50;;;;;;;3.29;100.00;98104.09;6102084;19;20085;-71
2023/12/20 00:58:53;;;;;;;0.50;0.50;;;;;;;3.25;100.00;98097.72;6101108;19;20081;-71
2023/12/20 01:00:53;;;;;;;4.55;0.50;;;;;;;3.29;100.00;98095.91;6101059;19;20103;-71
2023/12/20 01:02:53;;;;;;;0.47;0.47;;;;;;;3.30;100.00;98092.03;6099060;19;20021;-71
2023/12/20 01:04:54;;;;;;;0.77;0.45;;;;;;;3.32;100.00;98099.91;6100488;19;20007;-71
2023/12/20 01:06:54;;;;;;;0.50;0.50;;;;;;;3.25;100.00;98097.72;6100663;19;20344;-71
2023/12/20 01:08:54;;;;;;;0.40;0.40;;;;;;;3.37;100.00;98088.72;6101165;19;20010;-71
2023/12/20 01:10:55;;;;;;;0.50;0.50;;;;;;;3.36;100.00;98101.63;6099094;19;20007;-71
2023/12/20 01:12:55;;;;;;;0.50;0.50;;;;;;;3.36;100.00;98095.34;6099773;19;20002;-71
2023/12/20 01:14:55;;;;;;;0.50;0.50;;;;;;;3.30;100.00;98092.03;6100157;19;20321;-71
2023/12/20 01:16:56;;;;;;;0.60;0.60;;;;;;;3.31;100.00;98085.44;6102083;19;20007;-71
2023/12/20 01:18:56;;;;;;;0.50;0.50;;;;;;;3.27;100.00;98089.19;6100156;19;20019;-71
2023/12/20 01:21:00;;;;;;;1.45;0.82;;;;;;;3.28;100.00;98094.31;6098915;19;20003;-72
2023/12/20 01:23:01;;;;;;;1.55;1.00;;;;;;;3.27;100.00;98089.97;6100902;19;20022;-71
2023/12/20 01:25:02;;;;;;;1.58;1.02;;;;;;;3.24;100.00;98084.41;6101265;19;20479;-72
2023/12/20 01:27:03;;;;;;;0.80;0.60;;;;;;;3.36;100.00;98087.13;6100762;19;20239;-72
2023/12/20 01:29:03;;;;;;;0.60;0.60;;;;;;;3.31;100.00;98082.72;6100384;19;20037;-71
2023/12/20 01:31:04;;;;;;;1.95;0.60;;;;;;;3.26;100.00;98085.66;6099889;19;20768;-71
2023/12/20 01:33:04;;;;;;;0.50;0.50;;;;;;;3.24;100.00;98077.00;6101805;19;20040;-71
2023/12/20 01:35:04;;;;;;;0.55;0.55;;;;;;;3.27;100.00;98075.50;6099673;19;20035;-71
2023/12/20 01:37:05;;;;;;;0.52;0.52;;;;;;;3.24;100.00;98077.00;6101371;19;20368;-71
2023/12/20 01:39:05;;;;;;;0.50;0.50;;;;;;;3.22;100.00;98075.72;6101454;19;20002;-71
2023/12/20 01:41:05;;;;;;;0.50;0.50;;;;;;;3.20;100.00;98069.81;6099623;19;19998;-71
2023/12/20 01:43:09;;;;;;;0.60;0.60;;;;;;;3.15;100.00;98078.25;6099523;19;20499;-71
2023/12/20 01:45:09;;;;;;;0.50;0.50;;;;;;;3.14;100.00;98071.94;6101092;19;20010;-71
2023/12/20 01:47:10;;;;;;;0.98;0.60;;;;;;;3.17;100.00;98076.75;6100593;19;20007;-71
2023/12/20 01:49:11;;;;;;;0.50;0.50;;;;;;;3.12;100.00;98068.75;6089919;19;20664;-71
2023/12/20 01:51:11;;;;;;;0.40;0.40;;;;;;;3.14;100.00;98073.88;6095490;19;20026;-71
2023/12/20 01:53:12;;;;;;;0.55;0.55;;;;;;;3.15;100.00;98073.56;6099037;19;20003;-72
2023/12/20 01:55:15;;;;;;;0.50;0.50;;;;;;;3.12;100.00;98076.97;6097085;19;20026;-72
2023/12/20 01:57:15;;;;;;;0.50;0.50;;;;;;;3.12;100.00;98070.69;6097068;19;20001;-72
2023/12/20 01:59:17;;;;;;;0.45;0.45;;;;;;;3.12;100.00;98070.69;6097043;19;20002;-72
2023/12/20 02:01:18;;;;;;;0.70;0.50;;;;;;;3.17;100.00;98079.47;6096545;19;20003;-72
2023/12/20 02:03:18;;;;;;;0.40;0.40;;;;;;;3.14;100.00;98071.16;6096667;19;20010;-72
2023/12/20 02:05:20;;;;;;;0.50;0.50;;;;;;;3.13;100.00;98075.03;6096966;19;20451;-72
2023/12/20 02:07:22;;;;;;;0.45;0.45;;;;;;;3.11;100.00;98075.38;6097636;19;20009;-72
2023/12/20 02:09:22;;;;;;;1.58;0.57;;;;;;;3.08;100.00;98071.38;6096327;19;20011;-71
2023/12/20 02:11:23;;;;;;;0.77;0.50;;;;;;;3.12;100.00;98059.75;6096523;19;20086;-71
2023/12/20 02:13:23;;;;;;;0.40;0.40;;;;;;;3.13;100.00;98070.34;6098187;19;20028;-71
2023/12/20 02:15:24;;;;;;;0.50;0.50;;;;;;;3.14;100.00;98061.00;6095895;19;20380;-71
2023/12/20 02:17:25;;;;;;;0.60;0.60;;;;;;;3.06;100.00;98059.16;6096453;19;20011;-71
2023/12/20 02:19:26;;;;;;;0.47;0.47;;;;;;;3.07;100.00;98058.84;6096317;19;20455;-71
2023/12/20 02:21:32;;;;;;;0.65;0.50;;;;;;;3.08;100.00;98060.44;6096863;19;20644;-71
2023/12/20 02:23:32;;;;;;;0.50;0.50;;;;;;;3.12;100.00;98046.88;6097180;19;20335;-71
2023/12/20 02:25:33;;;;;;;0.50;0.50;;;;;;;3.10;100.00;98049.97;6095773;19;20015;-72
2023/12/20 02:27:35;;;;;;;0.50;0.50;;;;;;;3.07;100.00;98045.19;6100185;19;20451;-72
2023/12/20 02:29:35;;;;;;;0.50;0.50;;;;;;;3.05;100.00;98052.13;6102727;19;20085;-72
2023/12/20 02:31:36;;;;;;;0.50;0.50;;;;;;;3.06;100.00;98042.78;6101222;19;20028;-72
2023/12/20 02:33:36;;;;;;;0.40;0.40;;;;;;;3.07;100.00;98037.00;6100950;19;20069;-71
2023/12/20 02:35:36;;;;;;;0.50;0.50;;;;;;;3.03;100.00;98038.78;6102053;19;20347;-71
2023/12/20 02:37:37;;;;;;;0.40;0.40;;;;;;;3.04;100.00;98034.91;6103274;19;20119;-71
2023/12/20 02:39:37;;;;;;;0.40;0.40;;;;;;;3.14;100.00;98027.41;6101473;19;20021;-71
2023/12/20 02:41:37;;;;;;;0.50;0.50;;;;;;;3.10;100.00;98019.91;6099898;19;20022;-71
2023/12/20 02:43:38;;;;;;;0.50;0.50;;;;;;;3.05;100.00;98022.03;6102654;19;20678;-71
2023/12/20 02:45:38;;;;;;;2.42;0.50;;;;;;;3.07;100.00;98025.25;6100807;19;20427;-72
2023/12/20 02:47:38;;;;;;;0.50;0.50;;;;;;;3.05;100.00;98027.50;6100308;19;20392;-72
2023/12/20 02:49:38;;;;;;;0.50;0.50;;;;;;;3.04;100.00;98025.91;6098268;19;20690;-72
2023/12/20 02:51:39;;;;;;;0.43;0.43;;;;;;;3.05;100.00;98022.03;6093296;19;20006;-72
2023/12/20 02:53:39;;;;;;;0.50;0.50;;;;;;;3.04;100.00;98024.00;6094487;19;20048;-72
2023/12/20 02:55:40;;;;;;;0.47;0.47;;;;;;;3.13;100.00;98014.88;6094404;19;20360;-72
2023/12/20 02:57:42;;;;;;;0.60;0.60;;;;;;;3.08;100.00;98011.25;6095112;19;20078;-71
2023/12/20 02:59:43;;;;;;;0.73;0.73;;;;;;;3.09;100.00;98003.84;6094249;19;20513;-71
2023/12/20 03:01:45;;;;;;;1.98;0.90;;;;;;;3.12;100.00;98007.81;6092450;19;20637;-71
2023/12/20 03:03:45;;;;;;;0.85;0.77;;;;;;;3.09;100.00;98020.25;6093800;19;20439;-71
2023/12/20 03:05:46;;;;;;;0.60;0.60;;;;;;;3.14;100.00;98021.94;6093050;19;20003;-72
2023/12/20 03:07:46;;;;;;;0.50;0.50;;;;;;;3.09;100.00;98021.03;6094073;19;20003;-71
2023/12/20 03:09:47;;;;;;;2.90;0.75;;;;;;;3.13;100.00;98018.41;6094322;19;19998;-71
2023/12/20 03:11:47;;;;;;;0.50;0.50;;;;;;;3.09;100.00;98007.38;6093727;19;20007;-71
2023/12/20 03:13:47;;;;;;;0.55;0.55;;;;;;;3.13;100.00;98002.00;6093636;19;20377;-71
2023/12/20 03:15:48;;;;;;;0.57;0.57;;;;;;;3.09;100.00;98010.09;6093489;19;20006;-72
2023/12/20 03:17:48;;;;;;;0.57;0.57;;;;;;;3.16;100.00;98008.75;6093829;19;20716;-72
2023/12/20 03:19:48;;;;;;;0.50;0.50;;;;;;;3.14;100.00;98008.28;6093898;19;19999;-72
2023/12/20 03:21:48;;;;;;;0.40;0.40;;;;;;;3.19;100.00;98014.31;6092530;19;20374;-71
2023/12/20 03:23:49;;;;;;;0.50;0.50;;;;;;;3.14;100.00;98022.75;6094412;19;20103;-71
2023/12/20 03:25:49;;;;;;;0.55;0.55;;;;;;;3.14;100.00;98027.41;6093647;19;20015;-71
2023/12/20 03:27:49;;;;;;;0.40;0.40;;;;;;;3.14;100.00;98022.75;6091912;19;20268;-71
2023/12/20 03:29:50;;;;;;;0.40;0.40;;;;;;;3.17;100.00;98016.63;6093011;19;20334;-71
2023/12/20 03:31:50;;;;;;;0.52;0.52;;;;;;;3.22;100.00;98021.03;6093126;19;20003;-71
2023/12/20 03:33:52;;;;;;;0.50;0.50;;;;;;;3.25;100.00;98021.19;6093759;19;20041;-71
2023/12/20 03:35:52;;;;;;;1.30;0.70;;;;;;;3.31;100.00;98030.75;6092980;19;20011;-71
2023/12/20 03:37:53;;;;;;;1.73;0.77;;;;;;;3.32;100.00;98023.34;6091713;19;19998;-71
2023/12/20 03:39:53;;;;;;;1.83;0.90;;;;;;;3.34;100.00;98016.38;6093350;19;20474;-71
2023/12/20 03:41:53;;;;;;;0.52;0.52;;;;;;;3.33;100.00;98014.00;6091667;19;20279;-71
2023/12/20 03:43:54;;;;;;;0.70;0.70;;;;;;;3.42;100.00;98031.09;6093743;19;20246;-71
2023/12/20 03:45:54;;;;;;;0.68;0.68;;;;;;;3.41;100.00;98043.19;6090812;19;20040;-71
2023/12/20 03:47:56;;;;;;;1.85;0.70;;;;;;;3.41;100.00;98034.97;6093300;19;20011;-71
2023/12/20 03:49:56;;;;;;;1.38;0.70;;;;;;;3.45;100.00;98048.75;6096454;19;20014;-71
2023/12/20 03:51:56;;;;;;;1.52;0.70;;;;;;;3.43;100.00;98042.81;6100994;19;20467;-71
2023/12/20 03:53:57;;;;;;;0.85;0.70;;;;;;;3.44;100.00;98047.16;6097913;19;20070;-71
2023/12/20 03:55:57;;;;;;;0.60;0.60;;;;;;;3.41;100.00;98054.13;6100922;19;20002;-71
2023/12/20 03:57:57;;;;;;;0.55;0.55;;;;;;;3.48;100.00;98056.28;6100973;19;20300;-72
2023/12/20 03:59:57;;;;;;;1.20;0.77;;;;;;;3.45;100.00;98059.69;6101020;19;20027;-72
2023/12/20 04:01:58;;;;;;;0.70;0.70;;;;;;;3.42;100.00;98055.72;6099198;19;20101;-72
2023/12/20 04:03:58;;;;;;;0.80;0.80;;;;;;;3.49;100.00;98050.47;6100777;19;20021;-72
2023/12/20 04:05:58;;;;;;;0.77;0.77;;;;;;;3.48;100.00;98037.94;6100525;19;20002;-72
2023/12/20 04:08:01;;;;;;;1.63;1.42;;;;;;;3.47;100.00;98038.25;6099907;19;20006;-71
2023/12/20 04:10:03;;;;;;;1.92;1.10;;;;;;;3.38;100.00;98041.91;6099631;19;20003;-71
2023/12/20 04:12:05;;;;;;;2.15;1.40;;;;;;;3.46;100.00;98037.47;6099032;19;20506;-71
2023/12/20 04:14:07;;;;;;;2.95;1.40;;;;;;;3.52;100.00;98036.09;6100658;19;20094;-71
2023/12/20 04:16:07;;;;;;;1.30;1.20;;;;;;;3.53;100.00;98029.47;6099983;19;20005;-71
2023/12/20 04:18:07;;;;;;;2.47;1.30;;;;;;;3.53;100.00;98039.63;6099619;19;19998;-71
2023/12/20 04:20:08;;;;;;;2.30;1.48;;;;;;;3.55;100.00;98045.56;6100035;19;20347;-71
2023/12/20 04:22:08;;;;;;;4.28;1.60;;;;;;;3.54;100.00;98052.97;6098707;19;20062;-71
2023/12/20 04:24:09;;;;;;;4.53;2.00;;;;;;;3.59;100.00;98062.88;6099952;19;20325;-72
2023/12/20 04:26:10;;;;;;;3.22;1.83;;;;;;;3.65;100.00;98058.78;6097288;19;19994;-72
2023/12/20 04:28:10;;;;;;;1.45;1.15;;;;;;;3.67;100.00;98051.03;6099745;19;20002;-72
2023/12/20 04:30:11;;;;;;;3.92;1.70;;;;;;;3.66;100.00;98049.44;6098630;19;19995;-72
2023/12/20 04:32:11;;;;;;;2.20;1.33;;;;;;;3.63;100.00;98050.91;6099937;19;20336;-72
2023/12/20 04:34:12;;;;;;;2.88;1.75;;;;;;;3.62;100.00;98054.00;6099525;19;20025;-71
2023/12/20 04:36:12;;;;;;;2.40;1.67;;;;;;;3.61;100.00;98053.19;6099124;19;20030;-71
2023/12/20 04:38:12;;;;;;;2.95;1.80;;;;;;;3.56;100.00;98063.59;6100221;19;20345;-71
2023/12/20 04:40:13;;;;;;;2.47;1.30;;;;;;;3.55;100.00;98065.50;6098803;19;20041;-72
2023/12/20 04:42:13;;;;;;;2.42;1.50;;;;;;;3.51;100.00;98066.53;6099348;19;21233;-72
2023/12/20 04:44:13;;;;;;;4.63;1.77;;;;;;;3.57;100.00;98070.66;6099490;19;20005;-72
2023/12/20 04:46:14;;;;;;;2.90;1.30;;;;;;;3.63;100.00;98078.25;6098628;19;20022;-72
2023/12/20 04:48:14;;;;;;;2.72;1.80;;;;;;;3.57;100.00;98062.44;6096311;19;20002;-72
2023/12/20 04:50:15;;;;;;;4.85;1.67;;;;;;;3.55;100.00;98070.16;6096792;19;20014;-72
2023/12/20 04:52:15;;;;;;;2.58;1.60;;;;;;;3.59;100.00;98074.63;6099449;19;20545;-72
2023/12/20 04:54:15;;;;;;;2.15;1.60;;;;;;;3.61;100.00;98077.03;6099716;19;20069;-72
2023/12/20 04:56:16;;;;;;;1.98;1.40;;;;;;;3.59;100.00;98082.84;6099128;19;20010;-72
2023/12/20 04:58:16;;;;;;;3.17;1.73;;;;;;;3.57;100.00;98073.38;6098815;19;20003;-72
2023/12/20 05:00:17;;;;;;;3.53;1.85;;;;;;;3.55;100.00;98083.84;6098754;19;20394;-72
2023/12/20 05:02:17;;;;;;;2.80;1.90;;;;;;;3.56;100.00;98080.00;6099805;19;20023;-72
2023/12/20 05:04:17;;;;;;;3.28;1.95;;;;;;;3.57;100.00;98084.31;6098140;19;20587;-72
2023/12/20 05:06:18;;;;;;;3.47;2.28;;;;;;;3.55;100.00;98079.16;6099160;19;19998;-72
2023/12/20 05:08:18;;;;;;;3.10;1.92;;;;;;;3.57;100.00;98078.84;6099179;19;20559;-72
2023/12/20 05:10:18;;;;;;;11.38;6.50;;;;;;;3.62;100.00;98086.81;6096900;19;20604;-71
2023/12/20 05:12:19;;;;;;;10.88;7.78;;;;;;;3.66;100.00;98087.75;6097775;19;20642;-72
2023/12/20 05:14:19;;;;;;;6.53;5.13;;;;;;;3.63;100.00;98080.19;6098935;19;20267;-72
2023/12/20 05:16:20;;;;;;;6.28;4.57;;;;;;;3.66;100.00;98083.06;6098297;19;20005;-72
2023/12/20 05:18:21;;;;;;;5.38;3.47;;;;;;;3.64;100.00;98079.06;6099977;19;19999;-72
2023/12/20 05:20:21;;;;;;;6.82;3.33;;;;;;;3.61;100.00;98080.56;6099067;19;20022;-72
2023/12/20 05:22:21;;;;;;;8.52;4.63;;;;;;;3.65;100.00;98088.88;6096768;19;20295;-72
2023/12/20 05:24:22;;;;;;;10.82;5.70;;;;;;;3.62;100.00;98092.28;6098190;19;20013;-72
2023/12/20 05:26:22;;;;;;;8.85;4.60;;;;;;;3.61;100.00;98080.56;6098707;19;20006;-72
2023/12/20 05:28:22;;;;;;;10.00;5.25;;;;;;;3.64;100.00;98090.81;6098707;19;20026;-72
2023/12/20 05:30:23;;;;;;;9.93;4.13;;;;;;;3.69;100.00;98092.53;6097207;19;20598;-72
2023/12/20 05:32:23;;;;;;;8.77;3.47;;;;;;;3.67;100.00;98101.06;6097435;19;20503;-72
2023/12/20 05:34:24;;;;;;;4.90;2.95;;;;;;;3.65;100.00;98100.63;6097593;19;20007;-72
2023/12/20 05:36:24;;;;;;;4.18;2.28;;;;;;;3.66;100.00;98101.44;6097634;19;19998;-72
2023/12/20 05:38:24;;;;;;;3.15;2.30;;;;;;;3.61;100.00;98099.69;6098175;19;20003;-72
2023/12/20 05:40:24;;;;;;;3.83;2.42;;;;;;;3.60;100.00;98103.56;6096885;19;20003;-72
2023/12/20 05:42:25;;;;;;;5.75;3.10;;;;;;;3.62;100.00;98112.22;6097701;19;20041;-72
2023/12/20 05:44:25;;;;;;;4.18;2.50;;;;;;;3.57;100.00;98108.94;6097426;19;20010;-72
2023/12/20 05:46:26;;;;;;;3.90;3.00;;;;;;;3.64;100.00;98107.25;6096962;19;20007;-72
2023/12/20 05:48:27;;;;;;;2.97;2.30;;;;;;;3.71;100.00;98109.38;6097845;19;20006;-72
2023/12/20 05:50:27;;;;;;;2.90;2.10;;;;;;;3.81;100.00;98108.16;6097008;19;20006;-72
2023/12/20 05:52:28;;;;;;;4.53;2.42;;;;;;;3.92;100.00;98112.03;6097438;19;20006;-72
2023/12/20 05:54:28;;;;;;;2.92;2.20;;;;;;;3.89;100.00;98099.81;6095268;19;20131;-72
2023/12/20 05:56:28;;;;;;;2.75;2.10;;;;;;;3.92;100.00;98107.34;6094764;19;20479;-72
2023/12/20 05:58:29;;;;;;;4.22;2.00;;;;;;;3.90;100.00;98101.41;6097714;19;19998;-72
2023/12/20 06:00:29;;;;;;;4.18;2.47;;;;;;;3.88;100.00;98108.34;6097518;19;20503;-72
2023/12/20 06:02:29;;;;;;;3.55;2.05;;;;;;;3.84;100.00;98121.94;6098256;19;20002;-72
2023/12/20 06:04:30;;;;;;;11.15;6.72;;;;;;;3.79;100.00;98118.63;6099018;19;20010;-72
2023/12/20 06:06:30;;;;;;;6.57;4.00;;;;;;;3.88;100.00;98136.53;6099062;19;20522;-71
2023/12/20 06:08:31;;;;;;;4.28;2.65;;;;;;;3.90;100.00;98125.25;6103844;19;20098;-71
2023/12/20 06:10:31;;;;;;;6.18;5.07;;;;;;;3.87;100.00;98129.47;6100827;19;20818;-71
2023/12/20 06:12:33;;;;;;;4.85;3.65;;;;;;;3.88;100.00;98138.47;6103623;19;20015;-72
2023/12/20 06:14:34;;;;;;;5.10;2.65;;;;;;;3.87;100.00;98131.41;6099611;19;20327;-72
2023/12/20 06:16:34;;;;;;;4.97;2.30;;;;;;;3.90;100.00;98137.00;6102802;19;20083;-72
2023/12/20 06:18:36;;;;;;;5.13;2.22;;;;;;;3.92;100.00;98139.38;6099405;19;20354;-72
2023/12/20 06:20:37;;;;;;;6.22;3.70;;;;;;;3.85;100.00;98129.00;6100646;19;20007;-72
2023/12/20 06:22:37;;;;;;;4.82;2.70;;;;;;;3.73;100.00;98126.28;6098894;19;20025;-72
2023/12/20 06:24:37;;;;;;;8.40;3.17;;;;;;;3.74;100.00;98124.34;6096688;19;20066;-72
2023/12/20 06:26:38;;;;;;;3.65;2.60;;;;;;;3.74;100.00;98129.81;6096899;19;20010;-72
2023/12/20 06:28:38;;;;;;;9.82;6.47;;;;;;;3.61;100.00;98135.25;6098084;19;20007;-72
2023/12/20 06:30:38;;;;;;;11.65;4.78;;;;;;;3.61;100.00;98129.78;6095089;19;20010;-72
2023/12/20 06:32:39;;;;;;;9.35;4.90;;;;;;;3.56;100.00;98126.50;6099052;19;20011;-72
2023/12/20 06:34:39;;;;;;;16.25;7.40;;;;;;;3.50;100.00;98116.91;6101760;19;20029;-72
2023/12/20 06:36:40;;;;;;;23.83;13.00;;;;;;;3.52;100.00;98123.63;6102834;19;20016;-72
2023/12/20 06:38:42;;;;;;;11.40;7.15;;;;;;;3.49;100.00;98132.53;6100521;19;20466;-72
2023/12/20 06:40:42;;;;;;;13.68;6.05;;;;;;;3.46;100.00;98124.97;6099881;19;20713;-72
2023/12/20 06:42:43;;;;;;;8.32;5.25;;;;;;;3.40;100.00;98126.38;6100838;19;20019;-72
2023/12/20 06:44:44;;;;;;;9.07;4.90;;;;;;;3.33;100.00;98129.66;6101405;19;20396;-71
2023/12/20 06:46:44;;;;;;;14.50;5.28;;;;;;;3.29;100.00;98134.19;6103089;19;20289;-72
2023/12/20 06:48:44;;;;;;;12.43;5.75;;;;;;;3.29;100.00;98122.44;6101149;19;20010;-72
2023/12/20 06:50:45;;;;;;;12.00;6.40;;;;;;;3.27;100.00;98124.72;6093915;19;20006;-72
2023/12/20 06:52:45;;;;;;;9.23;4.90;;;;;;;3.20;100.00;98130.75;6101246;19;20353;-72
2023/12/20 06:54:45;;;;;;;14.27;7.20;;;;;;;3.20;100.00;98143.63;6101433;19;20016;-72
2023/12/20 06:56:46;;;;;;;9.68;5.80;;;;;;;3.13;100.00;98135.97;6103100;19;20018;-72
2023/12/20 06:58:46;;;;;;;8.15;4.72;;;;;;;3.10;100.00;98148.38;6103877;19;20571;-72
2023/12/20 07:00:46;;;;;;;8.18;4.22;;;;;;;3.09;100.00;98145.97;6103033;19;20091;-72
2023/12/20 07:02:47;;;;;;;6.97;3.28;;;;;;;3.06;100.00;98138.44;6103136;19;20462;-72
2023/12/20 07:04:48;;;;;;;4.45;3.15;;;;;;;2.98;100.00;98123.75;6095658;19;20619;-72
2023/12/20 07:06:51;;;;;;;5.90;3.08;;;;;;;2.98;100.00;98133.84;6099964;19;20011;-72
2023/12/20 07:08:52;;;;;;;5.43;2.70;;;;;;;3.00;100.00;98129.66;6102427;19;20031;-72
2023/12/20 07:10:52;;;;;;;3.30;2.53;;;;;;;3.00;100.00;98129.66;6102084;19;20007;-72
2023/12/20 07:12:54;;;;;;;5.38;2.50;;;;;;;2.98;100.00;98129.22;6102255;19;20526;-72
2023/12/20 07:14:55;;;;;;;4.68;2.45;;;;;;;3.00;100.00;98132.41;6103058;19;20007;-72
2023/12/20 07:16:56;;;;;;;6.47;2.80;;;;;;;2.96;100.00;98131.47;6102591;19;20034;-72
2023/12/20 07:18:57;;;;;;;3.97;2.53;;;;;;;2.84;100.00;98142.34;6103324;19;20498;-72
2023/12/20 07:20:57;;;;;;;4.75;3.08;;;;;;;2.87;100.00;98138.94;6101850;19;20019;-72
2023/12/20 07:22:58;;;;;;;7.53;3.38;;;;;;;2.92;100.00;98146.94;6103626;19;20098;-72
2023/12/20 07:24:58;;;;;;;5.32;3.03;;;;;;;2.88;100.00;98142.47;6103150;19;20415;-72
2023/12/20 07:27:00;;;;;;;7.38;2.92;;;;;;;2.94;100.00;98141.13;6102091;19;20266;-72
2023/12/20 07:29:00;;;;;;;4.13;2.80;;;;;;;2.89;100.00;98149.53;6102542;19;20006;-71
2023/12/20 07:31:00;;;;;;;8.18;3.13;;;;;;;2.87;100.00;98138.94;6102289;19;20383;-71
2023/12/20 07:33:02;;;;;;;6.32;3.67;;;;;;;2.90;100.00;98151.97;6102921;19;20556;-71
2023/12/20 07:35:03;;;;;;;8.20;5.18;;;;;;;2.98;100.00;98151.06;6102307;19;20027;-71
2023/12/20 07:37:03;;;;;;;6.15;3.67;;;;;;;2.94;100.00;98147.41;6103138;19;20006;-72
2023/12/20 07:39:04;;;;;;;9.63;4.80;;;;;;;2.94;100.00;98146.59;6103307;19;20844;-72
2023/12/20 07:41:04;;;;;;;6.50;3.65;;;;;;;3.00;100.00;98148.00;6102960;19;20017;-71
2023/12/20 07:43:05;;;;;;;4.85;3.38;;;;;;;3.01;100.00;98152.34;6104050;19;20070;-71
2023/12/20 07:45:05;;;;;;;8.27;3.75;;;;;;;2.96;100.00;98149.78;6102923;19;20006;-71
2023/12/20 07:47:06;;;;;;;4.68;3.35;;;;;;;2.93;100.00;98154.00;6101753;19;20006;-71
2023/12/20 07:49:06;;;;;;;6.97;3.58;;;;;;;2.95;100.00;98140.81;6101711;19;20010;-71
2023/12/20 07:51:08;;;;;;;6.88;3.33;;;;;;;2.97;100.00;98152.19;6094962;19;20505;-71
2023/12/20 07:53:08;;;;;;;6.13;3.58;;;;;;;2.96;100.00;98145.13;6095695;19;20021;-71
2023/12/20 07:55:09;;;;;;;4.13;2.92;;;;;;;3.02;100.00;98146.53;6095083;19;20003;-71
2023/12/20 07:57:10;;;;;;;5.50;3.58;;;;;;;3.09;100.00;98144.03;6095728;19;20042;-71
2023/12/20 07:59:10;;;;;;;11.50;6.00;;;;;;;3.12;100.00;98142.56;6095290;19;20421;-71
2023/12/20 08:01:12;;;;;;;14.20;5.97;;;;;;;3.16;100.00;98143.50;6094169;19;20007;-71
2023/12/20 08:03:12;;;;;;;6.70;3.67;;;;;;;3.22;100.00;98138.59;6092810;19;20011;-71
2023/12/20 08:05:13;;;;;;;4.47;2.92;;;;;;;3.26;100.00;98143.06;6095459;19;20403;-72
2023/12/20 08:07:14;;;;;;;4.50;2.83;;;;;;;3.36;100.00;98131.69;6093671;19;19999;-71
2023/12/20 08:09:14;;;;;;;4.55;2.40;;;;;;;3.42;100.00;98132.28;6095506;19;20002;-71
2023/12/20 08:11:15;;;;;;;3.78;2.25;;;;;;;3.43;100.00;98144.03;6094265;19;20521;-71
2023/12/20 08:13:15;;;;;;;5.05;2.50;;;;;;;3.55;100.00;98153.03;6094862;19;20003;-71
2023/12/20 08:15:16;;;;;;;3.90;2.58;;;;;;;3.63;100.00;98151.34;6094592;19;20354;-71
2023/12/20 08:17:18;;;;;;;6.18;3.10;;;;;;;3.60;100.00;98161.03;6094615;19;20005;-71
2023/12/20 08:19:18;;;;;;;5.93;3.65;;;;;;;3.75;100.00;98162.31;6094714;19;20009;-71
2023/12/20 08:21:20;;;;;;;6.22;2.95;;;;;;;3.82;100.00;98168.00;6093006;19;20467;-71
2023/12/20 08:23:20;;;;;;;4.32;2.85;;;;;;;3.88;100.00;98163.91;6094353;19;20007;-71
2023/12/20 08:25:21;;;;;;;3.80;2.53;;;;;;;3.81;100.00;98179.31;6091729;19;20123;-71
2023/12/20 08:27:21;;;;;;;5.30;2.63;;;;;;;3.82;100.00;98175.44;6094675;19;20006;-71
2023/12/20 08:29:21;;;;;;;6.25;2.70;;;;;;;3.78;100.00;98174.50;6094519;19;20215;-71
2023/12/20 08:31:22;;;;;;;4.45;2.53;;;;;;;3.84;100.00;98165.72;6093423;19;20350;-71
2023/12/20 08:33:22;;;;;;;4.53;2.20;;;;;;;3.87;100.00;98170.50;6095024;19;20488;-71
2023/12/20 08:35:24;;;;;;;4.10;2.30;;;;;;;3.90;100.00;98180.00;6093979;19;20549;-71
2023/12/20 08:37:24;;;;;;;6.70;2.80;;;;;;;3.90;100.00;98183.53;6094278;19;20627;-71
2023/12/20 08:39:24;;;;;;;4.80;2.72;;;;;;;3.88;100.00;98172.09;6094700;19;20502;-71
2023/12/20 08:41:24;;;;;;;3.28;2.33;;;;;;;3.88;100.00;98174.03;6093226;19;20016;-71
2023/12/20 08:43:25;;;;;;;6.65;2.92;;;;;;;3.88;100.00;98177.56;6093690;19;20006;-71
2023/12/20 08:45:25;;;;;;;4.15;2.75;;;;;;;3.88;100.00;98168.56;6094116;19;20546;-71
2023/12/20 08:47:25;;;;;;;4.90;3.30;;;;;;;3.86;100.00;98157.19;6093989;19;22634;-71
2023/12/20 08:49:26;;;;;;;11.27;4.50;;;;;;;3.85;100.00;98161.84;6093700;19;20679;-71
2023/12/20 08:51:26;;;;;;;12.30;5.70;;;;;;;3.84;100.00;98175.88;6100636;19;20002;-71
2023/12/20 08:53:27;;;;;;;15.88;7.30;;;;;;;3.89;100.00;98192.09;6102165;19;20066;-71
2023/12/20 08:55:28;;;;;;;11.32;6.03;;;;;;;3.91;100.00;98192.53;6101448;19;20335;-71
2023/12/20 08:57:29;;;;;;;5.68;3.13;;;;;;;3.94;100.00;98205.53;6101603;19;20623;-71
2023/12/20 08:59:29;;;;;;;6.20;3.10;;;;;;;3.97;100.00;98206.78;6102470;19;20016;-71
2023/12/20 09:01:30;;;;;;;5.32;2.60;;;;;;;4.02;100.00;98214.78;6100009;19;20003;-71
2023/12/20 09:03:30;;;;;;;3.28;2.20;;;;;;;4.07;100.00;98209.88;6100921;19;20002;-71
2023/12/20 09:05:31;;;;;;;6.90;2.25;;;;;;;4.11;100.00;98210.78;6101716;19;20003;-72
2023/12/20 09:07:31;;;;;;;4.63;2.38;;;;;;;4.13;100.00;98210.44;6101044;19;20438;-71
2023/12/20 09:09:32;;;;;;;8.98;2.83;;;;;;;4.17;100.00;98209.44;6101160;19;20002;-71
2023/12/20 09:11:32;;;;;;;6.50;2.10;;;;;;;4.20;100.00;98213.41;6100267;19;20021;-71
2023/12/20 09:13:32;;;;;;;5.72;2.50;;;;;;;4.21;100.00;98204.84;6101744;19;20003;-71
2023/12/20 09:15:34;;;;;;;4.90;2.17;;;;;;;4.27;100.00;98204.63;6100696;19;20007;-71
2023/12/20 09:17:34;;;;;;;5.72;2.00;;;;;;;4.20;100.00;98207.94;6101535;19;20034;-71
2023/12/20 09:19:34;;;;;;;3.47;1.90;;;;;;;4.20;100.00;98196.97;6100153;19;20010;-71
2023/12/20 09:21:35;;;;;;;3.78;2.00;;;;;;;4.21;100.00;98196.63;6099540;19;20002;-72
2023/12/20 09:23:36;;;;;;;4.40;1.80;;;;;;;4.25;100.00;98210.47;6101069;19;20319;-71
2023/12/20 09:25:37;;;;;;;3.75;1.95;;;;;;;4.27;100.00;98201.91;6099999;19;20003;-71